Time;durP1;ratioP1;P1;durP2;ratioP2;P2;SDS_P1;SDS_P2;PMS_P1;PMS_P2;Temp;Humidity;BMP_temperature;BMP_pressure;BME280_temperature;BME280_humidity;BME280_pressure;Samples;Min_cycle;Max_cycle;Signal;HPM_P1;HPM_P2
2021/04/05 00:02:01;;;;;;;4.15;2.80;;;4.40;44.70;;;;;;5135359;27;20704;-69
2021/04/05 00:04:29;;;;;;;3.63;2.92;;;4.40;45.30;;;;;;5134706;27;20195;-69
2021/04/05 00:07:00;;;;;;;4.80;3.80;;;4.40;45.30;;;;;;5135390;27;20278;-69
2021/04/05 00:09:32;;;;;;;7.43;3.95;;;4.40;44.90;;;;;;5134495;27;20188;-69
2021/04/05 00:12:00;;;;;;;6.43;2.83;;;4.40;45.50;;;;;;5135150;27;20195;-69
2021/04/05 00:14:27;;;;;;;6.25;2.90;;;4.40;45.50;;;;;;5134658;27;20180;-69
2021/04/05 00:16:58;;;;;;;3.45;2.72;;;4.30;45.30;;;;;;5134716;27;20219;-69
2021/04/05 00:19:26;;;;;;;10.95;3.00;;;4.30;45.70;;;;;;5134186;27;20192;-69
2021/04/05 00:21:59;;;;;;;3.90;2.63;;;4.20;45.60;;;;;;5134684;27;20191;-69
2021/04/05 00:24:28;;;;;;;7.35;3.33;;;4.10;46.70;;;;;;5134406;27;20202;-69
2021/04/05 00:26:55;;;;;;;4.78;3.15;;;4.10;46.10;;;;;;5134207;27;20191;-69
2021/04/05 00:29:22;;;;;;;5.65;3.00;;;4.00;46.20;;;;;;5134532;27;20196;-69
2021/04/05 00:32:03;;;;;;;5.70;2.70;;;4.00;46.30;;;;;;5133994;27;20649;-69
2021/04/05 00:34:31;;;;;;;5.65;3.10;;;4.10;46.30;;;;;;5134447;27;20198;-69
2021/04/05 00:37:00;;;;;;;3.97;2.85;;;4.00;46.20;;;;;;5133809;27;20215;-69
2021/04/05 00:39:27;;;;;;;4.47;2.55;;;4.00;45.90;;;;;;5134548;27;20200;-69
2021/04/05 00:41:55;;;;;;;7.72;2.80;;;4.00;46.10;;;;;;5134225;27;20180;-69
2021/04/05 00:44:30;;;;;;;7.65;3.20;;;3.80;46.50;;;;;;5133958;27;20668;-69
2021/04/05 00:47:00;;;;;;;5.18;2.75;;;3.70;47.00;;;;;;5133870;27;20215;-69
2021/04/05 00:49:28;;;;;;;6.80;3.65;;;3.80;47.10;;;;;;5134484;27;20211;-69
2021/04/05 00:51:54;;;;;;;7.45;2.65;;;3.70;46.90;;;;;;5133745;27;20176;-69
2021/04/05 00:54:22;;;;;;;7.47;2.70;;;3.70;46.80;;;;;;5134332;27;20179;-69
2021/04/05 00:56:49;;;;;;;3.92;2.53;;;3.70;47.40;;;;;;5133620;27;20685;-69
2021/04/05 00:59:25;;;;;;;7.30;3.15;;;3.60;47.40;;;;;;5134309;27;20529;-69
2021/04/05 01:01:54;;;;;;;6.32;3.70;;;3.50;47.90;;;;;;5133998;27;20198;-69
2021/04/05 01:04:26;;;;;;;8.30;4.75;;;3.50;47.70;;;;;;5133743;27;20215;-69
2021/04/05 01:07:08;;;;;;;6.90;3.53;;;3.30;48.10;;;;;;5132717;27;20191;-69
2021/04/05 01:09:40;;;;;;;3.92;2.40;;;3.30;49.00;;;;;;5134300;27;20222;-69
2021/04/05 01:12:08;;;;;;;3.80;2.55;;;3.30;48.90;;;;;;5133596;27;20524;-69
2021/04/05 01:14:35;;;;;;;5.90;4.22;;;3.30;48.90;;;;;;5133523;27;20559;-69
2021/04/05 01:17:08;;;;;;;6.65;2.78;;;3.30;48.40;;;;;;5133264;27;20254;-69
2021/04/05 01:19:39;;;;;;;3.95;2.70;;;3.30;48.70;;;;;;5133939;27;20198;-69
2021/04/05 01:22:08;;;;;;;3.55;2.30;;;3.30;48.90;;;;;;5133435;27;20298;-69
2021/04/05 01:24:40;;;;;;;7.32;3.13;;;3.30;49.30;;;;;;5133441;27;20226;-69
2021/04/05 01:27:13;;;;;;;4.22;2.20;;;3.30;49.30;;;;;;5133534;27;20230;-69
2021/04/05 01:29:40;;;;;;;6.97;2.90;;;3.40;49.00;;;;;;5133685;27;20190;-69
2021/04/05 01:32:08;;;;;;;4.28;2.67;;;3.50;48.80;;;;;;5132745;27;20207;-69
2021/04/05 01:34:40;;;;;;;4.43;2.40;;;3.40;48.50;;;;;;5133328;27;20274;-69
2021/04/05 01:37:09;;;;;;;4.15;2.53;;;3.40;49.40;;;;;;5132793;27;20242;-69
2021/04/05 01:39:37;;;;;;;4.18;2.63;;;3.40;48.60;;;;;;5133551;27;20196;-69
2021/04/05 01:42:05;;;;;;;5.82;2.65;;;3.40;48.40;;;;;;5132995;27;20676;-69
2021/04/05 01:44:33;;;;;;;5.40;2.45;;;3.40;48.30;;;;;;5133189;27;20184;-69
2021/04/05 01:47:02;;;;;;;4.20;2.53;;;3.40;48.10;;;;;;5132673;27;20188;-69
2021/04/05 01:49:34;;;;;;;4.25;2.72;;;3.30;48.30;;;;;;5133572;27;20188;-69
2021/04/05 01:52:05;;;;;;;5.30;3.00;;;3.30;48.80;;;;;;5133093;27;20179;-69
2021/04/05 01:54:34;;;;;;;7.72;3.17;;;3.30;49.00;;;;;;5132191;27;20194;-69
2021/04/05 01:57:02;;;;;;;7.70;2.50;;;3.40;48.50;;;;;;5133019;27;20219;-69
2021/04/05 01:59:31;;;;;;;3.72;2.42;;;3.40;48.20;;;;;;5132695;27;20250;-70
2021/04/05 02:01:58;;;;;;;3.78;2.47;;;3.40;48.10;;;;;;5133036;27;20195;-70
2021/04/05 02:04:28;;;;;;;6.47;2.58;;;3.30;48.20;;;;;;5132501;27;20211;-70
2021/04/05 02:07:00;;;;;;;5.65;2.63;;;3.30;48.40;;;;;;5133133;27;20195;-70
2021/04/05 02:09:32;;;;;;;3.90;2.20;;;3.30;48.40;;;;;;5132574;27;20187;-70
2021/04/05 02:12:05;;;;;;;5.68;2.30;;;3.20;48.30;;;;;;5133099;27;20545;-70
2021/04/05 02:14:41;;;;;;;4.47;2.58;;;3.20;48.60;;;;;;5132701;27;20184;-70
2021/04/05 02:17:12;;;;;;;3.40;2.05;;;3.20;48.60;;;;;;5133316;27;20259;-70
2021/04/05 02:19:46;;;;;;;3.88;2.65;;;3.20;48.80;;;;;;5137106;27;20230;-70
2021/04/05 02:22:16;;;;;;;4.43;2.70;;;3.20;48.90;;;;;;5137073;27;20183;-70
2021/04/05 02:24:43;;;;;;;4.13;2.67;;;3.30;49.00;;;;;;5137377;27;20641;-70
2021/04/05 02:27:15;;;;;;;3.95;2.22;;;3.30;49.00;;;;;;5136839;27;20187;-70
2021/04/05 02:29:43;;;;;;;3.90;2.70;;;3.30;48.80;;;;;;5137326;27;20605;-70
2021/04/05 02:32:12;;;;;;;4.00;2.55;;;3.20;48.80;;;;;;5136510;27;20191;-70
2021/04/05 02:34:39;;;;;;;4.40;2.40;;;3.20;49.10;;;;;;5137225;27;20192;-70
2021/04/05 02:37:06;;;;;;;4.50;2.33;;;3.30;49.20;;;;;;5136424;27;20222;-70
2021/04/05 02:39:39;;;;;;;4.35;2.45;;;3.30;49.10;;;;;;5137025;27;20192;-70
2021/04/05 02:42:09;;;;;;;3.83;2.30;;;3.30;49.30;;;;;;5136343;27;20218;-69
2021/04/05 02:44:37;;;;;;;2.50;1.70;;;3.30;49.10;;;;;;5136937;27;20557;-70
2021/04/05 02:47:06;;;;;;;3.25;2.00;;;3.20;48.70;;;;;;5136334;27;20194;-69
2021/04/05 02:49:35;;;;;;;4.88;2.00;;;3.20;49.30;;;;;;5136987;27;20188;-69
2021/04/05 02:52:09;;;;;;;4.65;2.50;;;3.00;49.40;;;;;;5136108;27;20222;-69
2021/04/05 02:54:36;;;;;;;2.90;1.95;;;2.90;50.00;;;;;;5136643;27;20191;-69
2021/04/05 02:57:08;;;;;;;3.50;2.42;;;2.80;50.50;;;;;;5136028;27;20207;-69
2021/04/05 02:59:37;;;;;;;5.55;2.40;;;2.70;50.50;;;;;;5136256;27;20180;-69
2021/04/05 03:02:05;;;;;;;4.60;2.25;;;2.70;50.80;;;;;;5136501;27;20240;-69
2021/04/05 03:04:33;;;;;;;4.90;2.97;;;2.70;50.80;;;;;;5136124;27;20176;-69
2021/04/05 03:07:11;;;;;;;4.57;2.20;;;2.80;50.90;;;;;;5136138;27;20195;-69
2021/04/05 03:09:41;;;;;;;4.00;2.28;;;2.80;50.80;;;;;;5135924;27;20224;-69
2021/04/05 03:12:10;;;;;;;4.25;2.20;;;2.90;50.80;;;;;;5136448;27;20217;-69
2021/04/05 03:14:42;;;;;;;3.03;1.90;;;2.90;50.40;;;;;;5136084;27;20266;-69
2021/04/05 03:17:13;;;;;;;5.43;2.15;;;2.90;50.40;;;;;;5135596;27;20226;-69
2021/04/05 03:19:43;;;;;;;3.92;2.03;;;2.90;50.60;;;;;;5135817;27;20187;-69
2021/04/05 03:22:15;;;;;;;3.97;2.28;;;2.80;50.70;;;;;;5135981;27;20192;-69
2021/04/05 03:24:43;;;;;;;5.20;2.80;;;2.80;50.90;;;;;;5135583;27;20237;-69
2021/04/05 03:27:12;;;;;;;5.43;2.10;;;2.80;51.10;;;;;;5135750;27;20188;-69
2021/04/05 03:29:43;;;;;;;4.22;2.17;;;2.70;51.00;;;;;;5134547;27;20184;-69
2021/04/05 03:32:16;;;;;;;5.20;2.58;;;2.70;50.80;;;;;;5136003;27;20196;-69
2021/04/05 03:34:48;;;;;;;5.65;2.45;;;2.60;50.90;;;;;;5135509;27;20188;-69
2021/04/05 03:37:22;;;;;;;8.25;2.65;;;2.60;51.20;;;;;;5135144;27;20551;-69
2021/04/05 03:39:53;;;;;;;3.63;2.08;;;2.60;51.30;;;;;;5135712;27;20191;-69
2021/04/05 03:42:31;;;;;;;4.22;2.25;;;2.60;51.70;;;;;;5135979;27;20593;-69
2021/04/05 03:45:05;;;;;;;4.07;1.98;;;2.60;52.20;;;;;;5135219;27;20191;-69
2021/04/05 03:47:41;;;;;;;4.10;2.38;;;2.60;52.20;;;;;;5134960;27;20210;-69
2021/04/05 03:50:19;;;;;;;3.65;2.10;;;2.70;52.00;;;;;;5135281;27;20259;-69
2021/04/05 03:52:52;;;;;;;2.33;1.80;;;2.60;51.80;;;;;;5135571;27;20191;-69
2021/04/05 03:55:28;;;;;;;4.05;2.92;;;2.60;51.70;;;;;;5135524;27;20180;-69
2021/04/05 03:57:58;;;;;;;7.15;2.78;;;2.60;51.90;;;;;;5134923;27;20585;-69
2021/04/05 04:00:30;;;;;;;7.75;2.50;;;2.60;52.10;;;;;;5134990;27;20232;-69
2021/04/05 04:03:00;;;;;;;4.43;2.13;;;2.60;51.70;;;;;;5135910;27;20244;-69
2021/04/05 04:05:34;;;;;;;3.72;2.10;;;2.50;51.60;;;;;;5134970;27;20179;-69
2021/04/05 04:08:11;;;;;;;3.15;2.20;;;2.50;51.70;;;;;;5135398;27;20190;-69
2021/04/05 04:10:47;;;;;;;3.85;2.22;;;2.60;52.20;;;;;;5135288;27;20179;-69
2021/04/05 04:13:18;;;;;;;6.15;2.80;;;2.50;52.20;;;;;;5135540;27;20186;-69
2021/04/05 04:15:52;;;;;;;5.05;2.50;;;2.40;52.60;;;;;;5135503;27;20530;-69
2021/04/05 04:18:20;;;;;;;3.17;2.25;;;2.50;52.80;;;;;;5134925;27;20219;-69
2021/04/05 04:21:06;;;;;;;5.82;2.40;;;2.50;52.80;;;;;;5134779;27;20638;-70
2021/04/05 04:23:34;;;;;;;3.40;2.15;;;2.40;52.70;;;;;;5135432;27;20183;-70
2021/04/05 04:26:05;;;;;;;6.82;2.72;;;2.40;53.10;;;;;;5134407;27;20192;-69
2021/04/05 04:28:34;;;;;;;5.95;3.05;;;2.40;53.10;;;;;;5134854;27;20184;-70
2021/04/05 04:31:05;;;;;;;3.60;2.28;;;2.30;53.30;;;;;;5114494;28;20188;-69
2021/04/05 04:33:34;;;;;;;4.90;3.30;;;2.40;53.00;;;;;;5114878;28;20192;-69
2021/04/05 04:36:01;;;;;;;5.00;3.28;;;2.50;52.80;;;;;;5134460;27;20274;-70
2021/04/05 04:38:29;;;;;;;13.00;3.55;;;2.50;52.50;;;;;;5134462;27;20207;-69
2021/04/05 04:40:56;;;;;;;4.22;2.80;;;2.60;52.10;;;;;;5133805;27;20188;-69
2021/04/05 04:43:31;;;;;;;4.72;3.00;;;2.60;51.50;;;;;;5135010;27;20192;-69
2021/04/05 04:46:02;;;;;;;6.38;5.57;;;2.60;51.50;;;;;;5134686;27;20256;-69
2021/04/05 04:48:31;;;;;;;6.90;3.55;;;2.70;51.40;;;;;;5134053;27;20211;-69
2021/04/05 04:51:09;;;;;;;7.55;4.18;;;2.70;51.50;;;;;;5134572;27;20522;-70
2021/04/05 04:53:41;;;;;;;8.07;4.10;;;2.60;51.10;;;;;;5134759;27;20195;-69
2021/04/05 04:56:08;;;;;;;5.78;3.15;;;2.60;51.40;;;;;;5133927;27;20224;-69
2021/04/05 04:58:38;;;;;;;7.22;2.67;;;2.50;51.60;;;;;;5134388;27;20591;-69
2021/04/05 05:01:06;;;;;;;6.38;3.00;;;2.50;51.90;;;;;;5133995;27;20191;-69
2021/04/05 05:03:41;;;;;;;3.85;2.95;;;2.60;51.90;;;;;;5134230;27;20548;-69
2021/04/05 05:06:13;;;;;;;94.63;36.55;;;2.50;51.70;;;;;;5133908;27;20187;-69
2021/04/05 05:08:41;;;;;;;47.47;18.95;;;2.50;51.70;;;;;;5134137;27;20649;-70
2021/04/05 05:11:16;;;;;;;29.20;10.52;;;2.50;51.60;;;;;;5134139;27;20184;-69
2021/04/05 05:13:43;;;;;;;8.50;4.75;;;2.50;52.00;;;;;;5134403;27;20191;-69
2021/04/05 05:16:13;;;;;;;7.82;2.70;;;2.50;52.00;;;;;;5133447;27;20198;-69
2021/04/05 05:18:42;;;;;;;10.13;3.88;;;2.50;52.50;;;;;;5133788;27;20207;-69
2021/04/05 05:21:16;;;;;;;8.02;2.80;;;2.50;52.70;;;;;;5133611;27;20222;-69
2021/04/05 05:23:45;;;;;;;14.02;7.70;;;2.40;52.90;;;;;;5134516;27;20183;-69
2021/04/05 05:26:19;;;;;;;18.90;8.77;;;2.50;53.00;;;;;;5133673;27;20198;-69
2021/04/05 05:28:51;;;;;;;23.92;10.15;;;2.60;53.00;;;;;;5133372;27;20184;-69
2021/04/05 05:31:19;;;;;;;26.25;11.80;;;2.70;52.60;;;;;;5133576;27;20183;-69
2021/04/05 05:33:47;;;;;;;14.70;8.48;;;2.80;52.80;;;;;;5134084;27;20194;-69
2021/04/05 05:36:16;;;;;;;16.40;6.38;;;2.90;52.40;;;;;;5133686;27;20188;-69
2021/04/05 05:38:44;;;;;;;11.13;5.70;;;3.00;52.20;;;;;;5133284;27;20184;-69
2021/04/05 05:41:28;;;;;;;11.30;4.93;;;3.10;52.30;;;;;;5133662;27;20191;-69
2021/04/05 05:44:05;;;;;;;11.90;5.60;;;3.20;52.40;;;;;;5114922;27;20195;-70
2021/04/05 05:46:37;;;;;;;7.97;4.10;;;3.20;52.00;;;;;;5123436;27;20183;-71
2021/04/05 05:49:15;;;;;;;5.75;3.80;;;3.40;52.30;;;;;;5130608;27;20298;-70
2021/04/05 05:52:02;;;;;;;8.38;4.30;;;3.50;52.30;;;;;;5129445;27;20196;-69
2021/04/05 05:54:44;;;;;;;7.57;5.65;;;3.70;52.10;;;;;;5129715;27;20275;-71
2021/04/05 05:57:15;;;;;;;6.55;4.32;;;3.90;51.70;;;;;;5116459;27;20330;-70
2021/04/05 05:59:47;;;;;;;6.32;4.30;;;4.00;51.30;;;;;;5112670;28;20271;-70
2021/04/05 06:02:33;;;;;;;7.28;3.67;;;4.10;51.50;;;;;;5116438;28;20234;-71
2021/04/05 06:05:32;;;;;;;9.63;4.97;;;4.20;51.60;;;;;;5112115;28;20211;-69
2021/04/05 06:08:12;;;;;;;6.85;3.67;;;4.30;51.60;;;;;;5116758;28;20188;-67
2021/04/05 06:10:49;;;;;;;10.02;4.72;;;4.40;51.20;;;;;;5112878;28;20722;-69
2021/04/05 06:13:26;;;;;;;7.82;4.38;;;4.60;50.70;;;;;;5127446;28;20577;-69
2021/04/05 06:16:12;;;;;;;6.45;4.10;;;4.60;50.00;;;;;;5117393;27;20657;-69
2021/04/05 06:18:50;;;;;;;8.52;4.47;;;4.60;50.00;;;;;;5126896;28;20248;-69
2021/04/05 06:21:30;;;;;;;9.55;4.03;;;4.70;49.80;;;;;;5126980;28;20537;-69
2021/04/05 06:24:02;;;;;;;5.43;3.88;;;4.80;49.80;;;;;;5117374;27;20188;-69
2021/04/05 06:26:47;;;;;;;4.95;3.15;;;4.90;49.40;;;;;;5112697;28;20192;-69
2021/04/05 06:29:27;;;;;;;7.28;3.72;;;5.10;49.40;;;;;;5130022;28;20186;-73
2021/04/05 06:32:20;;;;;;;8.25;4.97;;;5.30;49.40;;;;;;5130364;27;20642;-73
2021/04/05 06:35:03;;;;;;;16.77;10.88;;;5.60;48.80;;;;;;5111793;27;20639;-70
2021/04/05 06:37:39;;;;;;;14.45;8.77;;;5.80;48.90;;;;;;5124817;28;20692;-70
2021/04/05 06:40:13;;;;;;;11.65;7.00;;;6.10;49.50;;;;;;5112375;28;20199;-70
2021/04/05 06:43:16;;;;;;;8.48;4.25;;;6.30;47.90;;;;;;5116230;28;20199;-70
2021/04/05 06:45:56;;;;;;;6.53;3.15;;;6.50;46.20;;;;;;5128650;28;20187;-70
2021/04/05 06:48:45;;;;;;;5.85;3.25;;;6.80;45.20;;;;;;5114728;28;20212;-70
2021/04/05 06:51:31;;;;;;;4.57;2.30;;;7.00;43.40;;;;;;5124533;28;20597;-69
2021/04/05 06:54:32;;;;;;;6.68;2.55;;;7.30;42.00;;;;;;5111956;28;20215;-70
2021/04/05 06:57:13;;;;;;;5.43;3.13;;;7.50;42.30;;;;;;5108020;28;20212;-70
2021/04/05 07:00:04;;;;;;;6.32;3.58;;;7.80;42.00;;;;;;5130518;27;20184;-74
2021/04/05 07:03:04;;;;;;;4.90;2.75;;;8.10;42.10;;;;;;5119011;27;20216;-71
2021/04/05 07:05:57;;;;;;;2.90;1.85;;;8.50;42.50;;;;;;5133307;27;20188;-70
2021/04/05 07:08:39;;;;;;;3.10;2.22;;;9.00;43.30;;;;;;5119804;27;20196;-70
2021/04/05 07:11:16;;;;;;;3.95;2.08;;;9.50;41.50;;;;;;5118765;27;20228;-69
2021/04/05 07:14:08;;;;;;;3.42;2.30;;;9.80;39.30;;;;;;5125113;27;20188;-70
2021/04/05 07:16:50;;;;;;;3.85;2.38;;;10.30;39.00;;;;;;5129068;27;20192;-69
2021/04/05 07:19:34;;;;;;;6.95;3.13;;;10.90;38.20;;;;;;5133047;27;20284;-70
2021/04/05 07:22:17;;;;;;;6.97;4.10;;;11.60;35.90;;;;;;5130393;27;20188;-70
2021/04/05 07:24:53;;;;;;;5.40;2.97;;;12.10;35.90;;;;;;5130592;27;20664;-70
2021/04/05 07:27:26;;;;;;;4.55;2.33;;;12.60;33.40;;;;;;5124951;27;20267;-71
2021/04/05 07:30:03;;;;;;;3.10;2.28;;;13.00;32.40;;;;;;5123093;27;20188;-69
2021/04/05 07:32:39;;;;;;;5.95;3.15;;;13.20;32.00;;;;;;5116972;27;20271;-69
2021/04/05 07:35:18;;;;;;;7.85;2.70;;;13.50;30.90;;;;;;5130272;27;20214;-69
2021/04/05 07:37:53;;;;;;;3.00;1.88;;;14.40;30.90;;;;;;5121784;27;20219;-72
2021/04/05 07:40:52;;;;;;;4.93;3.00;;;15.80;32.80;;;;;;5125318;27;20687;-70
2021/04/05 07:43:30;;;;;;;4.35;2.80;;;18.50;28.60;;;;;;5130562;27;20184;-70
2021/04/05 07:46:14;;;;;;;5.07;2.53;;;20.40;26.00;;;;;;5128768;27;20187;-70
2021/04/05 07:48:50;;;;;;;3.80;2.93;;;22.50;25.70;;;;;;5119502;27;20464;-71
2021/04/05 07:51:21;;;;;;;5.47;3.50;;;24.20;22.40;;;;;;5129682;27;20846;-70
2021/04/05 07:53:57;;;;;;;4.10;3.03;;;25.30;21.40;;;;;;5133112;27;20947;-71
2021/04/05 07:56:29;;;;;;;6.23;2.90;;;26.70;19.90;;;;;;5127483;27;20507;-71
2021/04/05 07:59:09;;;;;;;3.60;2.40;;;28.00;18.00;;;;;;5127080;27;20439;-71
2021/04/05 08:01:49;;;;;;;5.40;2.77;;;29.00;17.60;;;;;;5116253;27;20541;-71
2021/04/05 08:04:22;;;;;;;3.23;2.13;;;30.00;16.30;;;;;;5114845;27;20834;-71
2021/04/05 08:06:58;;;;;;;3.63;2.40;;;31.20;15.60;;;;;;5118830;27;20798;-71
2021/04/05 08:09:34;;;;;;;3.57;2.10;;;32.30;13.60;;;;;;5129387;27;20974;-71
2021/04/05 08:12:19;;;;;;;6.50;2.40;;;33.00;10.90;;;;;;5123781;27;20891;-71
2021/04/05 08:14:58;;;;;;;3.70;2.40;;;33.10;10.60;;;;;;5124998;27;20774;-71
2021/04/05 08:17:53;;;;;;;3.60;2.70;;;33.20;10.80;;;;;;5115565;27;20437;-71
2021/04/05 08:20:25;;;;;;;4.23;2.10;;;33.80;10.90;;;;;;5131955;27;20467;-71
2021/04/05 08:22:58;;;;;;;3.33;2.00;;;34.30;10.10;;;;;;5116724;27;20780;-71
2021/04/05 08:25:33;;;;;;;3.70;2.10;;;35.10;9.70;;;;;;5118048;27;20438;-71
2021/04/05 08:28:10;;;;;;;3.30;1.70;;;36.10;10.00;;;;;;5118410;27;21019;-71
2021/04/05 08:30:50;;;;;;;4.70;2.23;;;36.90;9.40;;;;;;5114576;27;20476;-71
2021/04/05 08:33:39;;;;;;;3.60;2.20;;;37.30;8.30;;;;;;5124255;27;20804;-70
2021/04/05 08:36:20;;;;;;;3.30;2.00;;;37.80;7.80;;;;;;5126435;27;20554;-72
2021/04/05 08:38:56;;;;;;;4.30;2.23;;;38.00;7.70;;;;;;5131563;27;20461;-69
2021/04/05 08:41:32;;;;;;;3.00;1.57;;;38.30;6.50;;;;;;5125531;27;20860;-71
2021/04/05 08:44:02;;;;;;;4.90;2.00;;;37.90;6.50;;;;;;5125898;27;20490;-71
2021/04/05 08:46:33;;;;;;;3.33;2.17;;;38.40;7.40;;;;;;5126501;27;20433;-69
2021/04/05 08:49:03;;;;;;;4.03;1.67;;;39.40;6.60;;;;;;5127993;27;20480;-73
2021/04/05 08:51:34;;;;;;;2.50;1.80;;;40.20;6.50;;;;;;5129793;27;20815;-69
2021/04/05 08:54:04;;;;;;;3.80;1.70;;;40.30;5.70;;;;;;5126829;27;20425;-69
2021/04/05 08:56:36;;;;;;;5.93;2.33;;;39.80;5.40;;;;;;5127219;27;20439;-69
2021/04/05 08:59:08;;;;;;;3.53;1.63;;;39.80;6.10;;;;;;5118033;27;20437;-69
2021/04/05 09:01:46;;;;;;;3.00;1.97;;;40.20;5.40;;;;;;5128416;27;20508;-69
2021/04/05 09:04:20;;;;;;;2.47;1.50;;;40.60;5.10;;;;;;5112201;27;20440;-69
2021/04/05 09:07:03;;;;;;;2.53;1.47;;;40.40;4.40;;;;;;5125015;27;20972;-69
2021/04/05 09:09:36;;;;;;;3.07;1.90;;;40.00;4.90;;;;;;5116103;27;20473;-70
2021/04/05 09:12:06;;;;;;;5.63;1.57;;;39.80;5.30;;;;;;5116083;27;20454;-70
2021/04/05 09:15:14;;;;;;;4.37;1.93;;;39.80;5.40;;;;;;5119109;27;20434;-70
2021/04/05 09:18:09;;;;;;;3.40;1.73;;;39.40;4.90;;;;;;5125044;27;20433;-70
2021/04/05 09:21:10;;;;;;;4.30;1.80;;;38.70;5.40;;;;;;5115001;27;20885;-70
2021/04/05 09:24:25;;;;;;;4.80;1.67;;;38.30;5.30;;;;;;5125338;27;20445;-70
2021/04/05 09:27:29;;;;;;;3.00;2.00;;;38.00;5.40;;;;;;5115064;27;20438;-71
2021/04/05 09:30:29;;;;;;;2.63;1.50;;;38.00;5.70;;;;;;5127904;27;20442;-70
2021/04/05 09:33:35;;;;;;;3.47;1.63;;;38.10;5.50;;;;;;5126364;27;20437;-71
2021/04/05 09:36:25;;;;;;;3.30;1.67;;;38.10;5.40;;;;;;5096894;27;20434;-70
2021/04/05 09:39:31;;;;;;;4.00;2.00;;;37.30;5.50;;;;;;5113275;27;21009;-70
2021/04/05 09:42:27;;;;;;;2.63;1.73;;;36.50;5.30;;;;;;5121451;27;20445;-70
2021/04/05 09:45:14;;;;;;;4.93;1.83;;;35.30;6.00;;;;;;5116188;27;20438;-69
2021/04/05 09:48:15;;;;;;;4.07;1.80;;;34.40;7.10;;;;;;5126128;27;20602;-69
2021/04/05 09:51:00;;;;;;;4.87;2.20;;;33.10;6.70;;;;;;5123802;27;20799;-69
2021/04/05 09:53:39;;;;;;;6.53;2.10;;;31.30;7.20;;;;;;5113206;27;20430;-74
2021/04/05 09:56:08;;;;;;;3.60;2.07;;;30.00;8.10;;;;;;5111907;28;20438;-74
2021/04/05 09:58:40;;;;;;;4.50;2.20;;;28.90;8.40;;;;;;5126094;27;20434;-73
2021/04/05 10:01:12;;;;;;;5.03;2.03;;;28.20;9.60;;;;;;5128556;27;21684;-71
2021/04/05 10:03:43;;;;;;;5.53;2.77;;;27.50;10.20;;;;;;5111572;27;20430;-72
2021/04/05 10:06:18;;;;;;;3.60;1.90;;;27.50;10.40;;;;;;5113860;27;20837;-71
2021/04/05 10:08:54;;;;;;;6.77;3.00;;;27.50;10.00;;;;;;5114509;28;20538;-71
2021/04/05 10:11:23;;;;;;;4.30;1.60;;;27.40;10.60;;;;;;5126558;28;20844;-71
2021/04/05 10:13:54;;;;;;;8.93;2.80;;;27.10;10.30;;;;;;5117616;27;20508;-71
2021/04/05 10:16:24;;;;;;;3.87;1.77;;;26.60;10.80;;;;;;5113847;28;20494;-73
2021/04/05 10:18:53;;;;;;;4.10;1.83;;;26.40;11.40;;;;;;5114377;27;20438;-72
2021/04/05 10:21:23;;;;;;;4.43;2.43;;;26.00;10.90;;;;;;5113226;28;20879;-72
2021/04/05 10:23:51;;;;;;;3.33;1.90;;;25.50;10.70;;;;;;5129101;27;20490;-71
2021/04/05 10:26:20;;;;;;;3.83;1.80;;;25.00;11.50;;;;;;5129004;28;20927;-71
2021/04/05 10:28:49;;;;;;;3.53;1.80;;;24.50;11.20;;;;;;5126481;27;20495;-71
2021/04/05 10:31:18;;;;;;;2.53;1.60;;;23.90;11.60;;;;;;5129059;27;20440;-74
2021/04/05 10:33:50;;;;;;;3.77;2.23;;;23.60;12.50;;;;;;5124985;28;20952;-71
2021/04/05 10:36:21;;;;;;;8.00;1.60;;;23.40;13.00;;;;;;5129668;27;20861;-71
2021/04/05 10:38:51;;;;;;;3.17;1.97;;;23.10;12.50;;;;;;5126024;27;20446;-71
2021/04/05 10:41:36;;;;;;;4.50;2.13;;;22.60;12.70;;;;;;5115281;27;20438;-71
2021/04/05 10:44:09;;;;;;;3.00;1.87;;;22.20;13.00;;;;;;5130934;27;20440;-71
2021/04/05 10:46:40;;;;;;;7.23;1.80;;;21.70;13.60;;;;;;5133562;27;20485;-71
2021/04/05 10:49:12;;;;;;;3.03;1.50;;;21.40;14.20;;;;;;5123112;27;20533;-71
2021/04/05 10:51:41;;;;;;;2.57;1.40;;;21.20;14.20;;;;;;5128175;27;20489;-71
2021/04/05 10:54:15;;;;;;;3.43;1.80;;;20.90;14.20;;;;;;5132540;27;20437;-70
2021/04/05 10:56:48;;;;;;;2.20;1.50;;;20.50;15.10;;;;;;5132560;27;20428;-70
2021/04/05 10:59:22;;;;;;;7.23;2.37;;;20.20;15.70;;;;;;5132962;27;20490;-71
2021/04/05 11:01:52;;;;;;;3.53;1.80;;;20.10;16.30;;;;;;5132233;27;20467;-71
2021/04/05 11:04:23;;;;;;;3.80;2.47;;;20.00;16.80;;;;;;5122637;27;20787;-70
2021/04/05 11:06:51;;;;;;;6.83;2.47;;;20.20;16.00;;;;;;5126762;27;20855;-70
2021/04/05 11:09:19;;;;;;;3.83;1.43;;;20.60;16.70;;;;;;5123751;27;20481;-71
2021/04/05 11:11:52;;;;;;;4.97;1.97;;;21.40;17.00;;;;;;5128411;27;20527;-71
2021/04/05 11:14:21;;;;;;;2.40;1.70;;;22.20;16.00;;;;;;5115364;27;20479;-71
2021/04/05 11:16:51;;;;;;;3.50;1.60;;;23.20;16.20;;;;;;5131082;27;20444;-71
2021/04/05 11:19:28;;;;;;;3.67;1.37;;;24.30;15.40;;;;;;5124593;27;20438;-70
2021/04/05 11:21:58;;;;;;;3.67;1.40;;;25.30;14.70;;;;;;5122044;27;20442;-71
2021/04/05 11:24:32;;;;;;;2.50;1.60;;;25.90;14.00;;;;;;5125756;27;20827;-71
2021/04/05 11:27:03;;;;;;;3.67;1.93;;;26.80;13.60;;;;;;5126976;27;21052;-72
2021/04/05 11:29:33;;;;;;;4.30;1.70;;;27.70;12.60;;;;;;5125123;27;20518;-71
2021/04/05 11:32:03;;;;;;;2.70;1.50;;;28.40;13.10;;;;;;5131518;27;21438;-71
2021/04/05 11:34:34;;;;;;;2.90;1.33;;;29.00;11.10;;;;;;5132128;27;20715;-71
2021/04/05 11:37:12;;;;;;;3.47;1.50;;;29.40;11.50;;;;;;5131634;27;20476;-71
2021/04/05 11:39:42;;;;;;;6.90;2.10;;;29.80;11.60;;;;;;5124362;27;20438;-71
2021/04/05 11:42:11;;;;;;;2.93;1.67;;;30.00;10.70;;;;;;5123378;27;20452;-72
2021/04/05 11:44:46;;;;;;;4.47;2.63;;;30.00;10.50;;;;;;5121758;27;20469;-72
2021/04/05 11:47:13;;;;;;;5.93;2.63;;;29.70;9.60;;;;;;5122038;27;20954;-71
2021/04/05 11:49:40;;;;;;;3.60;2.43;;;29.30;10.30;;;;;;5116474;27;20453;-72
2021/04/05 11:52:15;;;;;;;3.97;2.23;;;29.00;10.70;;;;;;5128759;27;20441;-72
2021/04/05 11:54:50;;;;;;;3.70;1.80;;;29.10;10.40;;;;;;5119247;27;20525;-71
2021/04/05 11:57:28;;;;;;;3.70;1.77;;;29.10;10.20;;;;;;5127737;27;20898;-71
2021/04/05 12:00:00;;;;;;;3.40;1.90;;;28.90;10.60;;;;;;5131723;27;20450;-71
2021/04/05 12:02:31;;;;;;;3.07;1.70;;;29.00;10.10;;;;;;5127546;27;20470;-71
2021/04/05 12:05:03;;;;;;;3.20;2.10;;;28.90;10.70;;;;;;5131369;27;20536;-71
2021/04/05 12:07:36;;;;;;;2.77;1.87;;;28.70;10.60;;;;;;5131082;27;20578;-71
2021/04/05 12:10:06;;;;;;;3.10;1.60;;;28.80;11.30;;;;;;5128297;27;20437;-71
2021/04/05 12:12:43;;;;;;;3.20;1.70;;;28.80;10.80;;;;;;5131448;27;20947;-71
2021/04/05 12:15:16;;;;;;;4.30;1.53;;;28.50;10.40;;;;;;5127647;27;20440;-71
2021/04/05 12:17:48;;;;;;;2.53;1.27;;;28.10;10.20;;;;;;5131384;27;20480;-70
2021/04/05 12:20:22;;;;;;;5.00;1.67;;;27.80;10.80;;;;;;5130717;27;20478;-71
2021/04/05 12:22:52;;;;;;;3.47;2.10;;;27.50;10.20;;;;;;5131190;27;20433;-71
2021/04/05 12:25:36;;;;;;;8.40;1.53;;;27.10;10.70;;;;;;5131299;27;20547;-70
2021/04/05 12:28:06;;;;;;;4.73;1.83;;;26.70;10.40;;;;;;5128615;27;20491;-70
2021/04/05 12:30:40;;;;;;;4.83;2.67;;;26.30;10.40;;;;;;5131069;27;20761;-71
2021/04/05 12:33:10;;;;;;;2.73;1.30;;;25.80;10.50;;;;;;5131066;27;20437;-71
2021/04/05 12:35:37;;;;;;;4.63;1.63;;;25.50;11.60;;;;;;5130913;27;20436;-71
2021/04/05 12:38:10;;;;;;;2.93;1.80;;;25.40;11.90;;;;;;5130502;27;20836;-71
2021/04/05 12:40:39;;;;;;;2.70;1.50;;;25.00;11.80;;;;;;5127393;27;20465;-71
2021/04/05 12:43:11;;;;;;;2.87;1.30;;;24.90;12.00;;;;;;5130675;27;20436;-70
2021/04/05 12:45:51;;;;;;;3.97;1.50;;;24.70;11.50;;;;;;5130157;27;20445;-71
2021/04/05 12:48:33;;;;;;;3.33;1.57;;;24.40;11.60;;;;;;5130576;27;20484;-70
2021/04/05 12:51:03;;;;;;;2.47;1.50;;;24.20;12.20;;;;;;5130901;27;20437;-71
2021/04/05 12:53:42;;;;;;;4.70;1.87;;;23.90;11.00;;;;;;5130807;27;20441;-70
2021/04/05 12:56:17;;;;;;;3.90;1.90;;;23.60;11.10;;;;;;5130779;27;20942;-71
2021/04/05 12:58:44;;;;;;;3.13;1.30;;;23.40;11.80;;;;;;5131088;27;20441;-70
2021/04/05 13:01:24;;;;;;;5.43;1.40;;;23.30;12.60;;;;;;5130056;27;20976;-71
2021/04/05 13:03:52;;;;;;;5.23;2.03;;;23.10;12.80;;;;;;5130566;27;20979;-71
2021/04/05 13:06:39;;;;;;;4.07;1.60;;;23.00;12.80;;;;;;5130477;27;20441;-71
2021/04/05 13:09:13;;;;;;;6.07;1.50;;;22.80;12.60;;;;;;5128885;27;20838;-71
2021/04/05 13:11:45;;;;;;;3.50;1.90;;;22.70;12.60;;;;;;5116493;27;20470;-70
2021/04/05 13:14:18;;;;;;;6.13;1.90;;;22.60;12.60;;;;;;5125695;27;20441;-71
2021/04/05 13:16:56;;;;;;;2.97;1.53;;;22.60;12.70;;;;;;5129622;27;20425;-70
2021/04/05 13:19:28;;;;;;;3.80;1.83;;;22.30;12.00;;;;;;5127156;27;20437;-72
2021/04/05 13:21:55;;;;;;;3.47;1.73;;;22.20;12.50;;;;;;5116654;27;20447;-72
2021/04/05 13:24:24;;;;;;;5.33;1.63;;;22.10;12.70;;;;;;5130323;27;20440;-70
2021/04/05 13:26:56;;;;;;;4.50;1.60;;;22.00;12.30;;;;;;5130411;27;20437;-70
2021/04/05 13:29:29;;;;;;;2.70;1.47;;;21.90;12.50;;;;;;5122027;27;20810;-70
2021/04/05 13:31:57;;;;;;;8.33;2.13;;;21.60;12.00;;;;;;5126319;27;20434;-70